Nearby METAR Reports

This page may be slow to load as it queries the National Weather Service for data.

KBIS - Bismarck, North Dakota, USA
Distance from station: S 10mi, 15km
Updated: Tue, 25-Jun-2019 12:52pm CDT
Partly cloudy
Partly cloudy
 Wind from W
Wind: W 14 mph , 22 km/h, Gust: 25 mph , 41 km/h
Temperature: 75°F , 24°C
Dew Point: 50°F , 10°C
Humidity: 41%
Barometer: 29.86 inHg , 1011.2 hPa
Clouds: Partly cloudy
Visibility: 10 miles , 16 km
Cloud details: Partly cloudy 5500 ft
2019/06/25 17:52 KBIS 251752Z 28012G22KT 10SM SCT055 24/10 A2986 RMK AO2 SLP106 T02440100 10250 20139 53003
KDIK - Dickinson, North Dakota, USA
Distance from station: W 95mi, 154km
Updated: Tue, 25-Jun-2019 12:56pm CDT
Few Clouds
Few Clouds
 Wind from WNW
Wind: WNW 12 mph , 19 km/h, Gust: 21 mph , 33 km/h
Temperature: 72°F , 22°C
Dew Point: 48°F , 9°C
Humidity: 44%
Barometer: 29.88 inHg , 1011.9 hPa
Clouds: Few Clouds
Visibility: 10 miles , 16 km
Cloud details: Few Clouds 5500 ft
2019/06/25 17:56 KDIK 251756Z AUTO 30010G18KT 10SM FEW055 22/09 A2988 RMK AO2 SLP112 6//// T02170089 10217 20100 51000
 
KISN - Williston, North Dakota, USA
Distance from station: NNW 2mi, 2km
Updated: Tue, 25-Jun-2019 12:52pm CDT
Clear
Clear
 Wind from W
Wind: W 13 mph , 20 km/h
Temperature: 73°F , 23°C
Dew Point: 48°F , 9°C
Humidity: 41%
Barometer: 29.85 inHg , 1010.8 hPa
Clouds: Clear
Visibility: 10 miles , 16 km
2019/06/25 17:52 KISN 251752Z AUTO 26011KT 10SM CLR 23/09 A2985 RMK AO2 SLP102 T02330089 10233 20117 51000
KFAR - Fargo, North Dakota, USA
Distance from station: NNW 4mi, 7km
Updated: Tue, 25-Jun-2019 12:53pm CDT
Mostly cloudy
Mostly cloudy
 Wind from NW
Wind: NW 13 mph , 20 km/h
Temperature: 72°F , 22°C
Dew Point: 55°F , 13°C
Humidity: 57%
Barometer: 29.75 inHg , 1007.5 hPa
Clouds: Mostly cloudy
Visibility: 10 miles , 16 km
Cloud details: Partly cloudy 4200 ft
Mostly cloudy 5500 ft
Mostly cloudy 10000 ft
2019/06/25 17:53 KFAR 251753Z 31011KT 10SM SCT042 BKN055 BKN100 22/13 A2975 RMK AO2 SLP075 T02220133 10239 20150 53010
 
KGFK - Grand Forks, North Dakota, USA
Distance from station: NNW 76mi, 123km
Updated: Tue, 25-Jun-2019 12:53pm CDT
Mostly cloudy
Mostly cloudy
 Wind from calm
Wind: Calm
Temperature: 72°F , 22°C
Dew Point: 55°F , 13°C
Humidity: 57%
Barometer: 29.72 inHg , 1006.4 hPa
Clouds: Mostly cloudy
Visibility: 10 miles , 16 km
Cloud details: Few Clouds 7000 ft
Partly cloudy 10000 ft
Partly cloudy 19000 ft
Mostly cloudy 25000 ft
2019/06/25 17:53 KGFK 251753Z 00000KT 10SM FEW070 SCT100 SCT190 BKN250 22/13 A2972 RMK SLP064 60000 T02170133 10222 20156 51011
KMOT - Minot, North Dakota, USA
Distance from station: E 109mi, 175km
Updated: Tue, 25-Jun-2019 12:54pm CDT
Partly cloudy
Partly cloudy
 Wind from W
Wind: W 17 mph , 28 km/h, Gust: 24 mph , 39 km/h
Temperature: 73°F , 23°C
Dew Point: 52°F , 11°C
Humidity: 47%
Barometer: 29.80 inHg , 1009.1 hPa
Clouds: Partly cloudy
Visibility: 10 miles , 16 km
Cloud details: Few Clouds 5000 ft
Partly cloudy 6000 ft
2019/06/25 17:54 KMOT 251754Z 26015G21KT 10SM FEW050 SCT060 23/11 A2980 RMK AO2 SLP087 T02330106 10239 20139 52006